sensor_id;sensor_type;location;lat;lon;timestamp;P1;durP1;ratioP1;P2;durP2;ratioP2
5285;SDS011;2665;53.112;7.358;2022-08-21T00:00:56;3.80;;;2.47;;
5285;SDS011;2665;53.112;7.358;2022-08-21T00:03:22;7.17;;;3.33;;
5285;SDS011;2665;53.112;7.358;2022-08-21T00:05:49;8.23;;;4.03;;
5285;SDS011;2665;53.112;7.358;2022-08-21T00:08:16;4.60;;;2.90;;
5285;SDS011;2665;53.112;7.358;2022-08-21T00:10:43;7.00;;;3.30;;
5285;SDS011;2665;53.112;7.358;2022-08-21T00:13:09;9.07;;;3.40;;
5285;SDS011;2665;53.112;7.358;2022-08-21T00:15:36;3.33;;;2.73;;
5285;SDS011;2665;53.112;7.358;2022-08-21T00:18:03;3.93;;;2.80;;
5285;SDS011;2665;53.112;7.358;2022-08-21T00:20:30;4.27;;;2.40;;
5285;SDS011;2665;53.112;7.358;2022-08-21T00:22:56;3.60;;;3.00;;
5285;SDS011;2665;53.112;7.358;2022-08-21T00:25:22;4.40;;;2.30;;
5285;SDS011;2665;53.112;7.358;2022-08-21T00:27:48;4.70;;;2.20;;
5285;SDS011;2665;53.112;7.358;2022-08-21T00:30:15;5.50;;;2.60;;
5285;SDS011;2665;53.112;7.358;2022-08-21T00:32:42;3.90;;;2.70;;
5285;SDS011;2665;53.112;7.358;2022-08-21T00:35:09;2.70;;;1.77;;
5285;SDS011;2665;53.112;7.358;2022-08-21T00:37:36;4.10;;;2.00;;
5285;SDS011;2665;53.112;7.358;2022-08-21T00:40:03;3.57;;;1.73;;
5285;SDS011;2665;53.112;7.358;2022-08-21T00:42:29;2.80;;;1.77;;
5285;SDS011;2665;53.112;7.358;2022-08-21T00:44:55;9.33;;;2.50;;
5285;SDS011;2665;53.112;7.358;2022-08-21T00:47:21;3.73;;;2.60;;
5285;SDS011;2665;53.112;7.358;2022-08-21T00:49:47;4.40;;;2.83;;
5285;SDS011;2665;53.112;7.358;2022-08-21T00:52:15;4.30;;;2.53;;
5285;SDS011;2665;53.112;7.358;2022-08-21T00:54:43;3.20;;;2.47;;
5285;SDS011;2665;53.112;7.358;2022-08-21T00:57:13;5.77;;;3.20;;
5285;SDS011;2665;53.112;7.358;2022-08-21T00:59:40;3.43;;;2.50;;
5285;SDS011;2665;53.112;7.358;2022-08-21T01:02:09;4.77;;;3.10;;
5285;SDS011;2665;53.112;7.358;2022-08-21T01:04:35;4.60;;;2.40;;
5285;SDS011;2665;53.112;7.358;2022-08-21T01:07:02;7.63;;;2.80;;
5285;SDS011;2665;53.112;7.358;2022-08-21T01:09:28;5.60;;;2.90;;
5285;SDS011;2665;53.112;7.358;2022-08-21T01:11:54;4.20;;;2.77;;
5285;SDS011;2665;53.112;7.358;2022-08-21T01:14:20;4.80;;;3.00;;
5285;SDS011;2665;53.112;7.358;2022-08-21T01:16:47;8.83;;;3.00;;
5285;SDS011;2665;53.112;7.358;2022-08-21T01:19:14;5.30;;;2.57;;
5285;SDS011;2665;53.112;7.358;2022-08-21T01:21:41;3.00;;;2.20;;
5285;SDS011;2665;53.112;7.358;2022-08-21T01:24:07;6.23;;;2.47;;
5285;SDS011;2665;53.112;7.358;2022-08-21T01:26:34;3.33;;;3.03;;
5285;SDS011;2665;53.112;7.358;2022-08-21T01:31:45;7.50;;;3.20;;
5285;SDS011;2665;53.112;7.358;2022-08-21T01:34:11;5.93;;;2.70;;
5285;SDS011;2665;53.112;7.358;2022-08-21T01:36:37;4.70;;;3.07;;
5285;SDS011;2665;53.112;7.358;2022-08-21T01:39:04;4.80;;;2.97;;
5285;SDS011;2665;53.112;7.358;2022-08-21T01:41:30;4.43;;;2.80;;
5285;SDS011;2665;53.112;7.358;2022-08-21T01:43:56;8.23;;;3.10;;
5285;SDS011;2665;53.112;7.358;2022-08-21T01:46:22;5.63;;;3.20;;
5285;SDS011;2665;53.112;7.358;2022-08-21T01:48:48;4.77;;;2.97;;
5285;SDS011;2665;53.112;7.358;2022-08-21T01:51:15;9.47;;;3.30;;
5285;SDS011;2665;53.112;7.358;2022-08-21T01:53:41;3.80;;;2.90;;
5285;SDS011;2665;53.112;7.358;2022-08-21T01:56:08;9.47;;;3.20;;
5285;SDS011;2665;53.112;7.358;2022-08-21T01:58:35;6.50;;;3.20;;
5285;SDS011;2665;53.112;7.358;2022-08-21T02:01:01;3.87;;;3.23;;
5285;SDS011;2665;53.112;7.358;2022-08-21T02:03:28;5.73;;;3.60;;
5285;SDS011;2665;53.112;7.358;2022-08-21T02:05:54;6.83;;;3.60;;
5285;SDS011;2665;53.112;7.358;2022-08-21T02:08:20;5.30;;;3.80;;
5285;SDS011;2665;53.112;7.358;2022-08-21T02:10:50;12.57;;;3.87;;
5285;SDS011;2665;53.112;7.358;2022-08-21T02:13:17;7.20;;;3.20;;
5285;SDS011;2665;53.112;7.358;2022-08-21T02:15:43;12.40;;;3.70;;
5285;SDS011;2665;53.112;7.358;2022-08-21T02:18:09;4.93;;;3.67;;
5285;SDS011;2665;53.112;7.358;2022-08-21T02:20:37;8.03;;;4.50;;
5285;SDS011;2665;53.112;7.358;2022-08-21T02:23:03;5.87;;;3.70;;
5285;SDS011;2665;53.112;7.358;2022-08-21T02:25:30;6.77;;;3.87;;
5285;SDS011;2665;53.112;7.358;2022-08-21T02:27:56;4.40;;;3.10;;
5285;SDS011;2665;53.112;7.358;2022-08-21T02:30:25;4.73;;;3.30;;
5285;SDS011;2665;53.112;7.358;2022-08-21T02:32:51;5.73;;;3.90;;
5285;SDS011;2665;53.112;7.358;2022-08-21T02:35:17;6.93;;;4.47;;
5285;SDS011;2665;53.112;7.358;2022-08-21T02:37:48;9.63;;;3.80;;
5285;SDS011;2665;53.112;7.358;2022-08-21T02:40:16;4.10;;;3.67;;
5285;SDS011;2665;53.112;7.358;2022-08-21T02:42:42;6.87;;;3.60;;
5285;SDS011;2665;53.112;7.358;2022-08-21T02:45:09;4.33;;;3.47;;
5285;SDS011;2665;53.112;7.358;2022-08-21T02:47:35;6.37;;;4.00;;
5285;SDS011;2665;53.112;7.358;2022-08-21T02:50:01;9.30;;;4.07;;
5285;SDS011;2665;53.112;7.358;2022-08-21T02:52:27;6.83;;;3.20;;
5285;SDS011;2665;53.112;7.358;2022-08-21T02:54:53;8.93;;;4.27;;
5285;SDS011;2665;53.112;7.358;2022-08-21T02:57:19;7.33;;;3.67;;
5285;SDS011;2665;53.112;7.358;2022-08-21T02:59:45;7.40;;;3.80;;
5285;SDS011;2665;53.112;7.358;2022-08-21T03:02:12;6.10;;;4.00;;
5285;SDS011;2665;53.112;7.358;2022-08-21T03:04:38;9.90;;;3.60;;
5285;SDS011;2665;53.112;7.358;2022-08-21T03:07:04;8.87;;;3.03;;
5285;SDS011;2665;53.112;7.358;2022-08-21T03:09:30;4.93;;;3.50;;
5285;SDS011;2665;53.112;7.358;2022-08-21T03:11:56;5.30;;;3.60;;
5285;SDS011;2665;53.112;7.358;2022-08-21T03:14:22;7.60;;;3.77;;
5285;SDS011;2665;53.112;7.358;2022-08-21T03:16:48;4.53;;;3.07;;
5285;SDS011;2665;53.112;7.358;2022-08-21T03:19:14;9.60;;;3.20;;
5285;SDS011;2665;53.112;7.358;2022-08-21T03:21:41;7.10;;;4.47;;
5285;SDS011;2665;53.112;7.358;2022-08-21T03:24:07;8.97;;;4.70;;
5285;SDS011;2665;53.112;7.358;2022-08-21T03:26:33;8.60;;;3.27;;
5285;SDS011;2665;53.112;7.358;2022-08-21T03:29:00;4.73;;;3.27;;
5285;SDS011;2665;53.112;7.358;2022-08-21T03:31:26;6.90;;;3.60;;
5285;SDS011;2665;53.112;7.358;2022-08-21T03:33:55;5.20;;;2.93;;
5285;SDS011;2665;53.112;7.358;2022-08-21T03:36:22;7.63;;;3.63;;
5285;SDS011;2665;53.112;7.358;2022-08-21T03:38:48;4.57;;;3.10;;
5285;SDS011;2665;53.112;7.358;2022-08-21T03:41:14;7.50;;;3.00;;
5285;SDS011;2665;53.112;7.358;2022-08-21T03:43:40;9.60;;;3.60;;
5285;SDS011;2665;53.112;7.358;2022-08-21T03:46:07;9.40;;;5.53;;
5285;SDS011;2665;53.112;7.358;2022-08-21T03:48:34;7.80;;;3.90;;
5285;SDS011;2665;53.112;7.358;2022-08-21T03:51:00;5.57;;;2.93;;
5285;SDS011;2665;53.112;7.358;2022-08-21T03:53:27;6.50;;;3.47;;
5285;SDS011;2665;53.112;7.358;2022-08-21T03:55:53;8.03;;;3.30;;
5285;SDS011;2665;53.112;7.358;2022-08-21T03:58:20;4.10;;;3.47;;
5285;SDS011;2665;53.112;7.358;2022-08-21T04:00:47;6.20;;;3.03;;
5285;SDS011;2665;53.112;7.358;2022-08-21T04:03:14;6.50;;;3.33;;
5285;SDS011;2665;53.112;7.358;2022-08-21T04:05:41;5.20;;;2.80;;
5285;SDS011;2665;53.112;7.358;2022-08-21T04:08:07;4.90;;;3.33;;
5285;SDS011;2665;53.112;7.358;2022-08-21T04:10:34;4.80;;;2.53;;
5285;SDS011;2665;53.112;7.358;2022-08-21T04:13:01;9.37;;;3.10;;
5285;SDS011;2665;53.112;7.358;2022-08-21T04:15:28;6.13;;;3.10;;
5285;SDS011;2665;53.112;7.358;2022-08-21T04:17:54;7.40;;;3.43;;
5285;SDS011;2665;53.112;7.358;2022-08-21T04:20:20;5.03;;;2.70;;
5285;SDS011;2665;53.112;7.358;2022-08-21T04:22:47;4.27;;;3.23;;
5285;SDS011;2665;53.112;7.358;2022-08-21T04:25:13;8.67;;;3.57;;
5285;SDS011;2665;53.112;7.358;2022-08-21T04:27:40;6.23;;;3.60;;
5285;SDS011;2665;53.112;7.358;2022-08-21T04:30:06;4.07;;;3.10;;
5285;SDS011;2665;53.112;7.358;2022-08-21T04:32:33;6.43;;;3.23;;
5285;SDS011;2665;53.112;7.358;2022-08-21T04:35:09;5.73;;;3.70;;
5285;SDS011;2665;53.112;7.358;2022-08-21T04:37:35;5.90;;;3.47;;
5285;SDS011;2665;53.112;7.358;2022-08-21T04:40:02;6.50;;;2.80;;
5285;SDS011;2665;53.112;7.358;2022-08-21T04:42:28;5.70;;;3.70;;
5285;SDS011;2665;53.112;7.358;2022-08-21T04:44:55;3.60;;;3.00;;
5285;SDS011;2665;53.112;7.358;2022-08-21T04:47:21;6.63;;;3.80;;
5285;SDS011;2665;53.112;7.358;2022-08-21T04:49:48;5.33;;;4.00;;
5285;SDS011;2665;53.112;7.358;2022-08-21T04:52:21;8.90;;;3.93;;
5285;SDS011;2665;53.112;7.358;2022-08-21T04:54:48;4.40;;;2.83;;
5285;SDS011;2665;53.112;7.358;2022-08-21T04:57:16;8.50;;;3.57;;
5285;SDS011;2665;53.112;7.358;2022-08-21T04:59:43;9.40;;;4.03;;
5285;SDS011;2665;53.112;7.358;2022-08-21T05:02:11;4.13;;;3.10;;
5285;SDS011;2665;53.112;7.358;2022-08-21T05:04:39;6.80;;;3.03;;
5285;SDS011;2665;53.112;7.358;2022-08-21T05:07:10;6.07;;;2.93;;
5285;SDS011;2665;53.112;7.358;2022-08-21T05:09:37;6.47;;;2.93;;
5285;SDS011;2665;53.112;7.358;2022-08-21T05:12:04;4.50;;;3.30;;
5285;SDS011;2665;53.112;7.358;2022-08-21T05:14:30;6.07;;;2.77;;
5285;SDS011;2665;53.112;7.358;2022-08-21T05:16:56;7.30;;;3.57;;
5285;SDS011;2665;53.112;7.358;2022-08-21T05:19:23;4.57;;;3.40;;
5285;SDS011;2665;53.112;7.358;2022-08-21T05:21:50;5.67;;;3.40;;
5285;SDS011;2665;53.112;7.358;2022-08-21T05:24:16;6.90;;;3.50;;
5285;SDS011;2665;53.112;7.358;2022-08-21T05:26:43;5.40;;;3.30;;
5285;SDS011;2665;53.112;7.358;2022-08-21T05:29:09;7.93;;;3.20;;
5285;SDS011;2665;53.112;7.358;2022-08-21T05:31:36;9.73;;;4.60;;
5285;SDS011;2665;53.112;7.358;2022-08-21T05:34:02;4.97;;;3.40;;
5285;SDS011;2665;53.112;7.358;2022-08-21T05:36:28;5.53;;;3.63;;
5285;SDS011;2665;53.112;7.358;2022-08-21T05:38:54;4.27;;;3.53;;
5285;SDS011;2665;53.112;7.358;2022-08-21T05:41:20;5.80;;;3.77;;
5285;SDS011;2665;53.112;7.358;2022-08-21T05:43:46;6.53;;;4.13;;
5285;SDS011;2665;53.112;7.358;2022-08-21T05:46:12;4.73;;;3.97;;
5285;SDS011;2665;53.112;7.358;2022-08-21T05:48:38;4.07;;;3.27;;
5285;SDS011;2665;53.112;7.358;2022-08-21T05:51:05;5.10;;;3.63;;
5285;SDS011;2665;53.112;7.358;2022-08-21T05:53:32;10.30;;;4.50;;
5285;SDS011;2665;53.112;7.358;2022-08-21T05:55:58;6.73;;;4.17;;
5285;SDS011;2665;53.112;7.358;2022-08-21T05:58:24;5.40;;;3.33;;
5285;SDS011;2665;53.112;7.358;2022-08-21T06:00:51;6.10;;;3.67;;
5285;SDS011;2665;53.112;7.358;2022-08-21T06:03:27;6.63;;;3.50;;
5285;SDS011;2665;53.112;7.358;2022-08-21T06:05:54;11.33;;;4.10;;
5285;SDS011;2665;53.112;7.358;2022-08-21T06:08:21;6.93;;;3.50;;
5285;SDS011;2665;53.112;7.358;2022-08-21T06:10:48;5.63;;;4.30;;
5285;SDS011;2665;53.112;7.358;2022-08-21T06:13:15;5.83;;;3.60;;
5285;SDS011;2665;53.112;7.358;2022-08-21T06:15:41;7.07;;;3.30;;
5285;SDS011;2665;53.112;7.358;2022-08-21T06:18:08;9.13;;;3.70;;
5285;SDS011;2665;53.112;7.358;2022-08-21T06:20:34;7.03;;;4.40;;
5285;SDS011;2665;53.112;7.358;2022-08-21T06:23:00;4.73;;;3.20;;
5285;SDS011;2665;53.112;7.358;2022-08-21T06:25:27;8.00;;;3.20;;
5285;SDS011;2665;53.112;7.358;2022-08-21T06:27:53;7.57;;;4.33;;
5285;SDS011;2665;53.112;7.358;2022-08-21T06:30:19;4.27;;;3.53;;
5285;SDS011;2665;53.112;7.358;2022-08-21T06:32:45;5.70;;;3.43;;
5285;SDS011;2665;53.112;7.358;2022-08-21T06:35:11;11.30;;;3.57;;
5285;SDS011;2665;53.112;7.358;2022-08-21T06:37:37;7.40;;;3.90;;
5285;SDS011;2665;53.112;7.358;2022-08-21T06:40:04;6.03;;;3.43;;
5285;SDS011;2665;53.112;7.358;2022-08-21T06:42:31;4.93;;;3.80;;
5285;SDS011;2665;53.112;7.358;2022-08-21T06:44:57;5.00;;;3.40;;
5285;SDS011;2665;53.112;7.358;2022-08-21T06:47:23;6.77;;;4.57;;
5285;SDS011;2665;53.112;7.358;2022-08-21T06:49:49;6.10;;;3.10;;
5285;SDS011;2665;53.112;7.358;2022-08-21T06:52:15;3.63;;;2.27;;
5285;SDS011;2665;53.112;7.358;2022-08-21T06:54:42;7.93;;;4.00;;
5285;SDS011;2665;53.112;7.358;2022-08-21T06:57:08;4.90;;;2.90;;
5285;SDS011;2665;53.112;7.358;2022-08-21T06:59:34;4.63;;;3.20;;
5285;SDS011;2665;53.112;7.358;2022-08-21T07:02:00;9.43;;;3.20;;
5285;SDS011;2665;53.112;7.358;2022-08-21T07:04:26;7.70;;;3.57;;
5285;SDS011;2665;53.112;7.358;2022-08-21T07:06:52;4.60;;;2.57;;
5285;SDS011;2665;53.112;7.358;2022-08-21T07:09:18;8.63;;;3.77;;
5285;SDS011;2665;53.112;7.358;2022-08-21T07:11:45;5.47;;;3.13;;
5285;SDS011;2665;53.112;7.358;2022-08-21T07:14:14;7.03;;;3.60;;
5285;SDS011;2665;53.112;7.358;2022-08-21T07:16:40;6.13;;;3.03;;
5285;SDS011;2665;53.112;7.358;2022-08-21T07:19:06;6.60;;;3.53;;
5285;SDS011;2665;53.112;7.358;2022-08-21T07:21:32;5.90;;;3.17;;
5285;SDS011;2665;53.112;7.358;2022-08-21T07:23:58;2.87;;;1.80;;
5285;SDS011;2665;53.112;7.358;2022-08-21T07:26:25;6.13;;;2.70;;
5285;SDS011;2665;53.112;7.358;2022-08-21T07:28:51;3.80;;;2.10;;
5285;SDS011;2665;53.112;7.358;2022-08-21T07:31:18;6.87;;;2.97;;
5285;SDS011;2665;53.112;7.358;2022-08-21T07:33:46;6.60;;;3.53;;
5285;SDS011;2665;53.112;7.358;2022-08-21T07:36:12;9.33;;;2.73;;
5285;SDS011;2665;53.112;7.358;2022-08-21T07:38:38;3.87;;;2.00;;
5285;SDS011;2665;53.112;7.358;2022-08-21T07:41:18;3.80;;;1.70;;
5285;SDS011;2665;53.112;7.358;2022-08-21T07:43:45;4.33;;;1.57;;
5285;SDS011;2665;53.112;7.358;2022-08-21T07:46:11;7.63;;;2.30;;
5285;SDS011;2665;53.112;7.358;2022-08-21T07:48:37;3.80;;;2.30;;
5285;SDS011;2665;53.112;7.358;2022-08-21T07:51:08;8.33;;;2.50;;
5285;SDS011;2665;53.112;7.358;2022-08-21T07:53:35;7.00;;;2.30;;
5285;SDS011;2665;53.112;7.358;2022-08-21T07:56:01;7.47;;;1.90;;
5285;SDS011;2665;53.112;7.358;2022-08-21T07:58:28;9.97;;;2.80;;
5285;SDS011;2665;53.112;7.358;2022-08-21T08:00:54;5.63;;;2.40;;
5285;SDS011;2665;53.112;7.358;2022-08-21T08:03:20;3.53;;;1.90;;
5285;SDS011;2665;53.112;7.358;2022-08-21T08:05:46;6.60;;;2.07;;
5285;SDS011;2665;53.112;7.358;2022-08-21T08:08:12;8.20;;;1.90;;
5285;SDS011;2665;53.112;7.358;2022-08-21T08:10:38;6.80;;;2.03;;
5285;SDS011;2665;53.112;7.358;2022-08-21T08:13:04;3.20;;;1.67;;
5285;SDS011;2665;53.112;7.358;2022-08-21T08:15:31;4.70;;;1.77;;
5285;SDS011;2665;53.112;7.358;2022-08-21T08:17:57;6.03;;;2.50;;
5285;SDS011;2665;53.112;7.358;2022-08-21T08:20:24;7.50;;;2.40;;
5285;SDS011;2665;53.112;7.358;2022-08-21T08:22:51;7.47;;;1.63;;
5285;SDS011;2665;53.112;7.358;2022-08-21T08:25:18;4.53;;;1.97;;
5285;SDS011;2665;53.112;7.358;2022-08-21T08:27:44;5.80;;;1.63;;
5285;SDS011;2665;53.112;7.358;2022-08-21T08:30:11;5.00;;;1.83;;
5285;SDS011;2665;53.112;7.358;2022-08-21T08:32:38;5.10;;;1.53;;
5285;SDS011;2665;53.112;7.358;2022-08-21T08:35:04;8.40;;;2.30;;
5285;SDS011;2665;53.112;7.358;2022-08-21T08:37:31;5.80;;;2.00;;
5285;SDS011;2665;53.112;7.358;2022-08-21T08:39:58;9.23;;;2.40;;
5285;SDS011;2665;53.112;7.358;2022-08-21T08:42:28;5.57;;;2.13;;
5285;SDS011;2665;53.112;7.358;2022-08-21T08:44:55;3.20;;;1.33;;
5285;SDS011;2665;53.112;7.358;2022-08-21T08:47:23;3.47;;;1.50;;
5285;SDS011;2665;53.112;7.358;2022-08-21T08:49:54;6.83;;;1.50;;
5285;SDS011;2665;53.112;7.358;2022-08-21T08:52:27;10.17;;;2.07;;
5285;SDS011;2665;53.112;7.358;2022-08-21T08:55:02;4.73;;;1.33;;
5285;SDS011;2665;53.112;7.358;2022-08-21T08:57:29;7.10;;;2.17;;
5285;SDS011;2665;53.112;7.358;2022-08-21T08:59:56;5.13;;;1.53;;
5285;SDS011;2665;53.112;7.358;2022-08-21T09:02:23;4.87;;;1.27;;
5285;SDS011;2665;53.112;7.358;2022-08-21T09:04:52;2.57;;;1.00;;
5285;SDS011;2665;53.112;7.358;2022-08-21T09:17:35;6.77;;;1.70;;
5285;SDS011;2665;53.112;7.358;2022-08-21T09:20:09;3.93;;;1.30;;
5285;SDS011;2665;53.112;7.358;2022-08-21T09:22:42;4.40;;;1.37;;
5285;SDS011;2665;53.112;7.358;2022-08-21T09:25:26;3.33;;;1.53;;
5285;SDS011;2665;53.112;7.358;2022-08-21T09:27:53;3.10;;;1.33;;
5285;SDS011;2665;53.112;7.358;2022-08-21T09:30:24;4.00;;;1.10;;
5285;SDS011;2665;53.112;7.358;2022-08-21T09:32:51;4.40;;;1.17;;
5285;SDS011;2665;53.112;7.358;2022-08-21T09:35:18;6.50;;;1.73;;
5285;SDS011;2665;53.112;7.358;2022-08-21T09:37:59;6.20;;;1.40;;
5285;SDS011;2665;53.112;7.358;2022-08-21T09:43:00;4.17;;;1.50;;
5285;SDS011;2665;53.112;7.358;2022-08-21T09:45:27;4.60;;;1.30;;
5285;SDS011;2665;53.112;7.358;2022-08-21T09:47:53;3.60;;;1.17;;
5285;SDS011;2665;53.112;7.358;2022-08-21T09:50:21;3.93;;;1.73;;
5285;SDS011;2665;53.112;7.358;2022-08-21T09:52:51;2.80;;;1.30;;
5285;SDS011;2665;53.112;7.358;2022-08-21T09:55:20;6.10;;;1.37;;
5285;SDS011;2665;53.112;7.358;2022-08-21T09:58:05;3.03;;;1.17;;
5285;SDS011;2665;53.112;7.358;2022-08-21T10:00:32;3.67;;;1.20;;
5285;SDS011;2665;53.112;7.358;2022-08-21T10:05:34;4.77;;;1.53;;
5285;SDS011;2665;53.112;7.358;2022-08-21T10:08:00;4.50;;;1.60;;
5285;SDS011;2665;53.112;7.358;2022-08-21T10:10:28;5.03;;;1.43;;
5285;SDS011;2665;53.112;7.358;2022-08-21T10:15:27;4.27;;;1.37;;
5285;SDS011;2665;53.112;7.358;2022-08-21T10:18:06;3.40;;;1.10;;
5285;SDS011;2665;53.112;7.358;2022-08-21T10:28:20;4.07;;;0.90;;
5285;SDS011;2665;53.112;7.358;2022-08-21T10:31:02;4.73;;;1.13;;
5285;SDS011;2665;53.112;7.358;2022-08-21T10:37:31;1.70;;;0.80;;
5285;SDS011;2665;53.112;7.358;2022-08-21T10:42:28;2.93;;;0.93;;
5285;SDS011;2665;53.112;7.358;2022-08-21T10:45:07;2.83;;;1.30;;
5285;SDS011;2665;53.112;7.358;2022-08-21T10:47:49;2.03;;;1.00;;
5285;SDS011;2665;53.112;7.358;2022-08-21T10:50:25;2.37;;;1.00;;
5285;SDS011;2665;53.112;7.358;2022-08-21T10:56:22;3.90;;;1.50;;
5285;SDS011;2665;53.112;7.358;2022-08-21T11:01:32;3.60;;;1.53;;
5285;SDS011;2665;53.112;7.358;2022-08-21T11:06:51;4.20;;;0.90;;
5285;SDS011;2665;53.112;7.358;2022-08-21T11:09:24;2.43;;;1.00;;
5285;SDS011;2665;53.112;7.358;2022-08-21T11:11:58;3.50;;;1.27;;
5285;SDS011;2665;53.112;7.358;2022-08-21T11:14:36;2.37;;;0.90;;
5285;SDS011;2665;53.112;7.358;2022-08-21T11:17:09;3.80;;;0.87;;
5285;SDS011;2665;53.112;7.358;2022-08-21T11:22:38;3.80;;;1.40;;
5285;SDS011;2665;53.112;7.358;2022-08-21T11:30:04;4.13;;;1.03;;
5285;SDS011;2665;53.112;7.358;2022-08-21T11:35:30;3.87;;;1.30;;
5285;SDS011;2665;53.112;7.358;2022-08-21T11:43:38;2.57;;;0.73;;
5285;SDS011;2665;53.112;7.358;2022-08-21T11:51:26;2.77;;;1.10;;
5285;SDS011;2665;53.112;7.358;2022-08-21T11:54:31;2.30;;;0.80;;
5285;SDS011;2665;53.112;7.358;2022-08-21T11:59:40;2.87;;;1.03;;
5285;SDS011;2665;53.112;7.358;2022-08-21T12:02:13;4.37;;;1.53;;
5285;SDS011;2665;53.112;7.358;2022-08-21T12:04:53;3.93;;;0.70;;
5285;SDS011;2665;53.112;7.358;2022-08-21T12:07:29;3.27;;;1.20;;
5285;SDS011;2665;53.112;7.358;2022-08-21T12:10:02;2.63;;;0.97;;
5285;SDS011;2665;53.112;7.358;2022-08-21T12:12:34;2.20;;;0.70;;
5285;SDS011;2665;53.112;7.358;2022-08-21T12:20:39;2.23;;;0.90;;
5285;SDS011;2665;53.112;7.358;2022-08-21T12:23:43;3.97;;;0.80;;
5285;SDS011;2665;53.112;7.358;2022-08-21T12:26:34;3.07;;;0.97;;
5285;SDS011;2665;53.112;7.358;2022-08-21T12:29:11;2.83;;;1.00;;
5285;SDS011;2665;53.112;7.358;2022-08-21T12:32:24;2.80;;;0.97;;
5285;SDS011;2665;53.112;7.358;2022-08-21T12:39:44;2.57;;;0.83;;
5285;SDS011;2665;53.112;7.358;2022-08-21T12:42:18;1.70;;;0.80;;
5285;SDS011;2665;53.112;7.358;2022-08-21T12:44:55;2.47;;;0.83;;
5285;SDS011;2665;53.112;7.358;2022-08-21T12:50:35;3.13;;;0.70;;
5285;SDS011;2665;53.112;7.358;2022-08-21T12:53:30;3.50;;;0.80;;
5285;SDS011;2665;53.112;7.358;2022-08-21T12:55:57;4.70;;;0.90;;
5285;SDS011;2665;53.112;7.358;2022-08-21T12:58:28;2.80;;;0.90;;
5285;SDS011;2665;53.112;7.358;2022-08-21T13:01:03;1.80;;;0.80;;
5285;SDS011;2665;53.112;7.358;2022-08-21T13:03:37;4.63;;;0.80;;
5285;SDS011;2665;53.112;7.358;2022-08-21T13:06:05;3.90;;;0.87;;
5285;SDS011;2665;53.112;7.358;2022-08-21T13:08:32;4.70;;;0.93;;
5285;SDS011;2665;53.112;7.358;2022-08-21T13:11:04;2.33;;;1.03;;
5285;SDS011;2665;53.112;7.358;2022-08-21T13:13:31;5.37;;;1.00;;
5285;SDS011;2665;53.112;7.358;2022-08-21T13:16:07;2.23;;;0.93;;
5285;SDS011;2665;53.112;7.358;2022-08-21T13:18:34;3.03;;;0.83;;
5285;SDS011;2665;53.112;7.358;2022-08-21T13:23:40;1.73;;;0.73;;
5285;SDS011;2665;53.112;7.358;2022-08-21T13:26:16;2.73;;;1.00;;
5285;SDS011;2665;53.112;7.358;2022-08-21T13:28:44;3.03;;;0.80;;
5285;SDS011;2665;53.112;7.358;2022-08-21T13:31:13;2.83;;;0.70;;
5285;SDS011;2665;53.112;7.358;2022-08-21T13:33:43;2.50;;;0.87;;
5285;SDS011;2665;53.112;7.358;2022-08-21T13:36:20;2.50;;;1.10;;
5285;SDS011;2665;53.112;7.358;2022-08-21T13:38:51;2.67;;;1.00;;
5285;SDS011;2665;53.112;7.358;2022-08-21T13:41:20;1.90;;;1.00;;
5285;SDS011;2665;53.112;7.358;2022-08-21T13:43:50;2.17;;;0.90;;
5285;SDS011;2665;53.112;7.358;2022-08-21T13:46:26;3.63;;;0.93;;
5285;SDS011;2665;53.112;7.358;2022-08-21T13:48:59;1.80;;;1.10;;
5285;SDS011;2665;53.112;7.358;2022-08-21T13:51:27;1.70;;;0.63;;
5285;SDS011;2665;53.112;7.358;2022-08-21T13:53:56;1.80;;;0.70;;
5285;SDS011;2665;53.112;7.358;2022-08-21T13:56:27;2.67;;;0.80;;
5285;SDS011;2665;53.112;7.358;2022-08-21T13:58:54;2.60;;;0.80;;
5285;SDS011;2665;53.112;7.358;2022-08-21T14:03:47;2.00;;;0.80;;
5285;SDS011;2665;53.112;7.358;2022-08-21T14:06:15;2.60;;;0.50;;
5285;SDS011;2665;53.112;7.358;2022-08-21T14:08:46;1.90;;;0.90;;
5285;SDS011;2665;53.112;7.358;2022-08-21T14:11:13;2.53;;;1.23;;
5285;SDS011;2665;53.112;7.358;2022-08-21T14:13:44;3.80;;;1.10;;
5285;SDS011;2665;53.112;7.358;2022-08-21T14:18:44;5.97;;;1.50;;
5285;SDS011;2665;53.112;7.358;2022-08-21T14:21:10;1.80;;;0.70;;
5285;SDS011;2665;53.112;7.358;2022-08-21T14:23:38;4.57;;;0.90;;
5285;SDS011;2665;53.112;7.358;2022-08-21T14:26:05;3.13;;;1.00;;
5285;SDS011;2665;53.112;7.358;2022-08-21T14:28:38;2.73;;;1.00;;
5285;SDS011;2665;53.112;7.358;2022-08-21T14:31:18;2.77;;;0.90;;
5285;SDS011;2665;53.112;7.358;2022-08-21T14:33:44;2.17;;;1.00;;
5285;SDS011;2665;53.112;7.358;2022-08-21T14:36:10;3.40;;;1.37;;
5285;SDS011;2665;53.112;7.358;2022-08-21T14:38:38;4.37;;;1.00;;
5285;SDS011;2665;53.112;7.358;2022-08-21T14:41:25;2.43;;;1.00;;
5285;SDS011;2665;53.112;7.358;2022-08-21T14:43:52;2.53;;;0.90;;
5285;SDS011;2665;53.112;7.358;2022-08-21T14:46:26;6.70;;;1.07;;
5285;SDS011;2665;53.112;7.358;2022-08-21T14:48:53;3.60;;;1.47;;
5285;SDS011;2665;53.112;7.358;2022-08-21T14:51:19;2.70;;;1.00;;
5285;SDS011;2665;53.112;7.358;2022-08-21T14:53:45;2.60;;;1.23;;
5285;SDS011;2665;53.112;7.358;2022-08-21T14:56:12;5.40;;;1.30;;
5285;SDS011;2665;53.112;7.358;2022-08-21T14:58:43;4.77;;;1.87;;
5285;SDS011;2665;53.112;7.358;2022-08-21T15:01:10;3.80;;;1.07;;
5285;SDS011;2665;53.112;7.358;2022-08-21T15:03:36;4.87;;;1.43;;
5285;SDS011;2665;53.112;7.358;2022-08-21T15:06:03;5.20;;;2.60;;
5285;SDS011;2665;53.112;7.358;2022-08-21T15:08:30;9.53;;;1.43;;
5285;SDS011;2665;53.112;7.358;2022-08-21T15:10:57;3.90;;;1.13;;
5285;SDS011;2665;53.112;7.358;2022-08-21T15:13:24;4.63;;;1.43;;
5285;SDS011;2665;53.112;7.358;2022-08-21T15:15:50;4.23;;;1.43;;
5285;SDS011;2665;53.112;7.358;2022-08-21T15:18:18;4.20;;;1.40;;
5285;SDS011;2665;53.112;7.358;2022-08-21T15:20:44;4.77;;;1.30;;
5285;SDS011;2665;53.112;7.358;2022-08-21T15:23:10;2.93;;;1.30;;
5285;SDS011;2665;53.112;7.358;2022-08-21T15:25:36;6.83;;;1.07;;
5285;SDS011;2665;53.112;7.358;2022-08-21T15:28:05;3.10;;;1.07;;
5285;SDS011;2665;53.112;7.358;2022-08-21T15:30:31;7.00;;;1.00;;
5285;SDS011;2665;53.112;7.358;2022-08-21T15:32:57;4.77;;;1.03;;
5285;SDS011;2665;53.112;7.358;2022-08-21T15:35:24;3.90;;;1.30;;
5285;SDS011;2665;53.112;7.358;2022-08-21T15:37:50;4.37;;;1.30;;
5285;SDS011;2665;53.112;7.358;2022-08-21T15:40:16;4.43;;;1.50;;
5285;SDS011;2665;53.112;7.358;2022-08-21T15:42:42;3.90;;;1.20;;
5285;SDS011;2665;53.112;7.358;2022-08-21T15:45:09;2.53;;;0.90;;
5285;SDS011;2665;53.112;7.358;2022-08-21T15:47:36;7.77;;;1.13;;
5285;SDS011;2665;53.112;7.358;2022-08-21T15:50:04;2.07;;;1.13;;
5285;SDS011;2665;53.112;7.358;2022-08-21T15:52:30;6.63;;;1.50;;
5285;SDS011;2665;53.112;7.358;2022-08-21T15:54:56;3.70;;;1.37;;
5285;SDS011;2665;53.112;7.358;2022-08-21T15:57:23;4.93;;;1.63;;
5285;SDS011;2665;53.112;7.358;2022-08-21T15:59:59;7.77;;;1.83;;
5285;SDS011;2665;53.112;7.358;2022-08-21T16:02:36;4.30;;;1.43;;
5285;SDS011;2665;53.112;7.358;2022-08-21T16:05:02;3.13;;;0.90;;
5285;SDS011;2665;53.112;7.358;2022-08-21T16:07:28;4.93;;;1.40;;
5285;SDS011;2665;53.112;7.358;2022-08-21T16:09:54;6.20;;;1.40;;
5285;SDS011;2665;53.112;7.358;2022-08-21T16:12:22;2.30;;;1.00;;
5285;SDS011;2665;53.112;7.358;2022-08-21T16:14:50;3.63;;;1.87;;
5285;SDS011;2665;53.112;7.358;2022-08-21T16:17:17;4.03;;;1.20;;
5285;SDS011;2665;53.112;7.358;2022-08-21T16:19:43;8.53;;;1.50;;
5285;SDS011;2665;53.112;7.358;2022-08-21T16:22:09;3.80;;;1.50;;
5285;SDS011;2665;53.112;7.358;2022-08-21T16:24:35;5.60;;;1.47;;
5285;SDS011;2665;53.112;7.358;2022-08-21T16:27:01;6.13;;;1.30;;
5285;SDS011;2665;53.112;7.358;2022-08-21T16:29:29;3.53;;;2.00;;
5285;SDS011;2665;53.112;7.358;2022-08-21T16:31:58;3.80;;;1.17;;
5285;SDS011;2665;53.112;7.358;2022-08-21T16:34:24;6.43;;;1.40;;
5285;SDS011;2665;53.112;7.358;2022-08-21T16:36:52;6.10;;;1.30;;
5285;SDS011;2665;53.112;7.358;2022-08-21T16:39:18;7.23;;;1.23;;
5285;SDS011;2665;53.112;7.358;2022-08-21T16:41:44;6.03;;;1.20;;
5285;SDS011;2665;53.112;7.358;2022-08-21T16:44:13;2.60;;;1.17;;
5285;SDS011;2665;53.112;7.358;2022-08-21T16:46:40;2.33;;;1.10;;
5285;SDS011;2665;53.112;7.358;2022-08-21T16:49:07;6.00;;;1.47;;
5285;SDS011;2665;53.112;7.358;2022-08-21T16:51:35;5.50;;;1.20;;